Bridge of Orchy, United Kingdom
Current Conditions -  °F | °C
As of 12:50 PM on Wednesday 17 Dec 2014 (Local Time) from EGEO Reporting Station
Scattered Clouds Scattered Clouds  
Wind Chill: 44°   Ceiling: Unl
Heat Index: 48°   Visibility: 6mi
Dew Point: 43°   Wind: 10mph
Humidity: 82%   Direction: 260°W
Pressure: 29.47"   Gusts: NA
Location:  56.49°N, 4.8°W
Report Text: EGEO 171250Z 26009KT 9999 FEW016 SCT024 09/06 Q0998
Loading
Personal Weather Stations






























Interactive Weather Map New forecast layout! Learn more

10-Day Weather Forecast

Advertisements
Track Severe Weather on mobile